createdAt,value
2017-03-09T00:00:34.031Z,0
2017-03-09T00:01:14.530Z,0
2017-03-09T00:01:55.022Z,0
2017-03-09T00:02:35.530Z,0
2017-03-09T00:03:16.026Z,0
2017-03-09T00:03:56.527Z,0
2017-03-09T00:04:37.030Z,0
2017-03-09T00:05:17.853Z,0
2017-03-09T00:05:59.052Z,0
2017-03-09T00:06:39.550Z,0
2017-03-09T00:07:20.052Z,0
2017-03-09T00:08:00.549Z,0
2017-03-09T00:08:41.049Z,0
2017-03-09T00:09:21.543Z,0
2017-03-09T00:10:02.352Z,0
2017-03-09T00:10:42.848Z,0
2017-03-09T00:11:23.317Z,0
2017-03-09T00:12:03.817Z,0
2017-03-09T00:12:44.306Z,0
2017-03-09T00:13:24.784Z,0
2017-03-09T00:14:05.276Z,0
2017-03-09T00:14:45.800Z,0
2017-03-09T00:15:26.302Z,0
2017-03-09T00:16:06.790Z,0
2017-03-09T00:16:47.301Z,0
2017-03-09T00:17:27.796Z,0
2017-03-09T00:18:08.292Z,0
2017-03-09T00:18:48.770Z,0
2017-03-09T00:19:29.253Z,0
2017-03-09T00:20:09.761Z,0
2017-03-09T00:20:50.228Z,0
2017-03-09T00:21:30.715Z,0
2017-03-09T00:22:11.198Z,0
2017-03-09T00:22:51.678Z,0
2017-03-09T00:23:32.192Z,0
2017-03-09T00:24:12.683Z,0
2017-03-09T00:24:53.168Z,0
2017-03-09T00:25:33.668Z,0
2017-03-09T00:26:14.162Z,0
2017-03-09T00:26:54.645Z,0
2017-03-09T00:27:35.152Z,0
2017-03-09T00:28:15.639Z,0
2017-03-09T00:28:56.131Z,0
2017-03-09T00:29:36.634Z,0
2017-03-09T00:30:17.116Z,0
2017-03-09T00:30:57.607Z,0
2017-03-09T00:31:38.093Z,0
2017-03-09T00:32:18.582Z,0
2017-03-09T00:32:59.081Z,0
2017-03-09T00:33:39.564Z,0
2017-03-09T00:34:20.058Z,0
2017-03-09T00:35:00.555Z,0
2017-03-09T00:35:41.023Z,0
2017-03-09T00:36:21.523Z,0
2017-03-09T00:37:02.009Z,0
2017-03-09T00:37:42.521Z,0
2017-03-09T00:38:23.020Z,0
2017-03-09T00:39:03.521Z,0
2017-03-09T00:39:43.984Z,0
2017-03-09T00:40:24.480Z,0
2017-03-09T00:41:04.971Z,0
2017-03-09T00:41:45.465Z,0
2017-03-09T00:42:25.961Z,0
2017-03-09T00:43:06.461Z,0
2017-03-09T00:43:46.938Z,0
2017-03-09T00:44:27.418Z,0
2017-03-09T00:45:07.908Z,0
2017-03-09T00:45:48.404Z,0
2017-03-09T00:46:28.909Z,0
2017-03-09T00:47:09.416Z,0
2017-03-09T00:47:49.905Z,0
2017-03-09T00:48:30.407Z,0
2017-03-09T00:49:10.893Z,0
2017-03-09T00:49:51.384Z,0
2017-03-09T00:50:31.871Z,0
2017-03-09T00:51:12.356Z,0
2017-03-09T00:51:52.850Z,0
2017-03-09T00:52:33.346Z,0
2017-03-09T00:53:13.825Z,0
2017-03-09T00:53:54.307Z,0
2017-03-09T00:54:34.790Z,0
2017-03-09T00:55:15.279Z,0
2017-03-09T00:55:55.797Z,0
2017-03-09T00:56:36.300Z,0
2017-03-09T00:57:16.798Z,0
2017-03-09T00:57:57.297Z,0
2017-03-09T00:58:37.795Z,0
2017-03-09T00:59:18.268Z,0
2017-03-09T00:59:58.757Z,0
2017-03-09T01:00:39.264Z,0
2017-03-09T01:01:19.747Z,0
2017-03-09T01:02:00.228Z,0
2017-03-09T01:02:40.715Z,0
2017-03-09T01:03:21.242Z,0
2017-03-09T01:04:01.740Z,0
2017-03-09T01:04:42.238Z,0
2017-03-09T01:05:22.735Z,0
2017-03-09T01:06:03.235Z,0
2017-03-09T01:06:43.731Z,0
2017-03-09T01:07:24.231Z,0
2017-03-09T01:08:04.709Z,0
2017-03-09T01:08:45.188Z,0
2017-03-09T01:09:25.697Z,0
2017-03-09T01:10:06.206Z,0
2017-03-09T01:10:46.684Z,0
2017-03-09T01:11:27.155Z,0
2017-03-09T01:12:07.654Z,0
2017-03-09T01:12:48.142Z,0
2017-03-09T01:13:28.629Z,0
2017-03-09T01:14:09.113Z,0
2017-03-09T01:14:49.600Z,0
2017-03-09T01:15:30.084Z,0
2017-03-09T01:16:10.604Z,0
2017-03-09T01:16:51.093Z,0
2017-03-09T01:17:31.588Z,0
2017-03-09T01:18:12.072Z,0
2017-03-09T01:18:52.547Z,0
2017-03-09T01:19:33.037Z,0
2017-03-09T01:20:13.590Z,0
2017-03-09T01:20:54.389Z,0
2017-03-09T01:21:34.892Z,0
2017-03-09T01:22:15.380Z,0
2017-03-09T01:22:55.883Z,0
2017-03-09T01:23:36.372Z,0
2017-03-09T01:24:16.876Z,0
2017-03-09T01:24:57.370Z,0
2017-03-09T01:25:37.873Z,0
2017-03-09T01:26:18.374Z,0
2017-03-09T01:26:58.836Z,0
2017-03-09T01:27:39.335Z,0
2017-03-09T01:28:19.820Z,0
2017-03-09T01:29:00.309Z,0
2017-03-09T01:29:40.824Z,0
2017-03-09T01:30:21.317Z,0
2017-03-09T01:31:01.817Z,0
2017-03-09T01:31:42.301Z,0
2017-03-09T01:32:22.795Z,0
2017-03-09T01:33:03.279Z,0
2017-03-09T01:33:43.781Z,0
2017-03-09T01:34:24.268Z,0
2017-03-09T01:35:04.765Z,0
2017-03-09T01:35:45.257Z,0
2017-03-09T01:36:25.762Z,0
2017-03-09T01:37:06.261Z,0
2017-03-09T01:37:46.751Z,0
2017-03-09T01:38:27.228Z,0
2017-03-09T01:39:07.729Z,0
2017-03-09T01:39:48.230Z,0
2017-03-09T01:40:28.720Z,0
2017-03-09T01:41:09.205Z,0
2017-03-09T01:41:49.711Z,0
2017-03-09T01:42:30.182Z,0
2017-03-09T01:43:10.669Z,0
2017-03-09T01:43:51.219Z,0
2017-03-09T01:44:31.706Z,0
2017-03-09T01:45:12.193Z,0
2017-03-09T01:45:52.675Z,0
2017-03-09T01:46:33.434Z,0
2017-03-09T01:47:13.914Z,0
2017-03-09T01:47:54.404Z,0
2017-03-09T01:48:34.903Z,0
2017-03-09T01:49:15.407Z,0
2017-03-09T01:49:55.909Z,0
2017-03-09T01:50:36.385Z,0
2017-03-09T01:51:16.879Z,0
2017-03-09T01:51:57.461Z,0
2017-03-09T01:52:37.926Z,0
2017-03-09T01:53:18.413Z,0
2017-03-09T01:53:58.908Z,0
2017-03-09T01:54:39.401Z,0
2017-03-09T01:55:19.894Z,0
2017-03-09T01:56:00.384Z,0
2017-03-09T01:56:40.875Z,0
2017-03-09T01:57:21.386Z,0
2017-03-09T01:58:01.866Z,0
2017-03-09T01:58:42.370Z,0
2017-03-09T01:59:22.859Z,0
2017-03-09T02:00:03.349Z,0
2017-03-09T02:00:43.815Z,0
2017-03-09T02:01:24.317Z,0
2017-03-09T02:02:04.793Z,0
2017-03-09T02:02:45.281Z,0
2017-03-09T02:03:25.764Z,0
2017-03-09T02:04:06.260Z,0
2017-03-09T02:04:46.747Z,0
2017-03-09T02:05:27.237Z,0
2017-03-09T02:06:07.731Z,0
2017-03-09T02:06:48.209Z,0
2017-03-09T02:07:28.695Z,0
2017-03-09T02:08:09.204Z,0
2017-03-09T02:08:49.685Z,0
2017-03-09T02:09:30.180Z,0
2017-03-09T02:10:10.679Z,0
2017-03-09T02:10:51.182Z,0
2017-03-09T02:11:31.680Z,0
2017-03-09T02:12:12.175Z,0
2017-03-09T02:12:52.648Z,0
2017-03-09T02:13:33.132Z,0
2017-03-09T02:14:13.626Z,0
2017-03-09T02:14:54.123Z,0
2017-03-09T02:15:34.611Z,0
2017-03-09T02:16:15.092Z,0
2017-03-09T02:16:55.578Z,0
2017-03-09T02:17:36.123Z,0
2017-03-09T02:18:16.619Z,0
2017-03-09T02:18:57.119Z,0
2017-03-09T02:19:37.619Z,0
2017-03-09T02:20:18.115Z,0
2017-03-09T02:20:58.617Z,0
2017-03-09T02:21:39.117Z,0
2017-03-09T02:22:19.604Z,0
2017-03-09T02:23:00.113Z,0
2017-03-09T02:23:40.591Z,0
2017-03-09T02:24:21.083Z,0
2017-03-09T02:25:01.570Z,0
2017-03-09T02:25:42.052Z,0
2017-03-09T02:26:22.533Z,0
2017-03-09T02:27:03.017Z,0
2017-03-09T02:27:43.511Z,0
2017-03-09T02:28:24.011Z,0
2017-03-09T02:29:04.503Z,0
2017-03-09T02:29:45.009Z,0
2017-03-09T02:30:25.499Z,0
2017-03-09T02:31:06.009Z,0
2017-03-09T02:31:46.506Z,0
2017-03-09T02:32:27.005Z,0
2017-03-09T02:33:07.504Z,0
2017-03-09T02:33:47.997Z,0
2017-03-09T02:34:28.489Z,0
2017-03-09T02:35:09.006Z,0
2017-03-09T02:35:49.491Z,0
2017-03-09T02:36:29.973Z,0
2017-03-09T02:37:10.472Z,0
2017-03-09T02:37:50.973Z,0
2017-03-09T02:38:31.457Z,0
2017-03-09T02:39:11.953Z,0
2017-03-09T02:39:52.443Z,0
2017-03-09T02:40:32.931Z,0
2017-03-09T02:41:13.439Z,0
2017-03-09T02:41:53.945Z,0
2017-03-09T02:42:34.439Z,0
2017-03-09T02:43:14.941Z,0
2017-03-09T02:43:55.419Z,0
2017-03-09T02:44:35.916Z,0
2017-03-09T02:45:16.423Z,0
2017-03-09T02:45:56.944Z,0
2017-03-09T02:46:37.441Z,0
2017-03-09T02:47:17.929Z,0
2017-03-09T02:47:58.440Z,0
2017-03-09T02:48:38.933Z,0
2017-03-09T02:49:19.441Z,0
2017-03-09T02:49:59.928Z,0
2017-03-09T02:50:40.432Z,0
2017-03-09T02:51:20.913Z,0
2017-03-09T02:52:01.399Z,0
2017-03-09T02:52:41.884Z,0
2017-03-09T02:53:22.383Z,0
2017-03-09T02:54:02.888Z,0
2017-03-09T02:54:43.376Z,0
2017-03-09T02:55:23.865Z,0
2017-03-09T02:56:04.366Z,0
2017-03-09T02:56:44.858Z,0
2017-03-09T02:57:25.752Z,0
2017-03-09T02:58:06.154Z,0
2017-03-09T02:58:46.648Z,0
2017-03-09T02:59:27.152Z,0
2017-03-09T03:00:07.648Z,0
2017-03-09T03:00:48.145Z,0
2017-03-09T03:01:28.639Z,0
2017-03-09T03:02:09.135Z,0
2017-03-09T03:02:49.625Z,0
2017-03-09T03:03:30.132Z,0
2017-03-09T03:04:10.629Z,0
2017-03-09T03:04:51.121Z,0
2017-03-09T03:05:31.602Z,0
2017-03-09T03:06:12.084Z,0
2017-03-09T03:06:52.580Z,0
2017-03-09T03:07:33.056Z,0
2017-03-09T03:08:13.576Z,0
2017-03-09T03:08:54.076Z,0
2017-03-09T03:09:34.562Z,0
2017-03-09T03:10:15.047Z,0
2017-03-09T03:10:55.532Z,0
2017-03-09T03:11:36.025Z,0
2017-03-09T03:12:16.524Z,0
2017-03-09T03:12:56.992Z,0
2017-03-09T03:13:37.496Z,0
2017-03-09T03:14:17.990Z,0
2017-03-09T03:14:58.480Z,0
2017-03-09T03:15:38.972Z,0
2017-03-09T03:16:19.462Z,0
2017-03-09T03:16:59.968Z,0
2017-03-09T03:17:40.445Z,0
2017-03-09T03:18:20.937Z,0
2017-03-09T03:19:01.421Z,0
2017-03-09T03:19:41.926Z,0
2017-03-09T03:20:22.414Z,0
2017-03-09T03:21:02.902Z,0
2017-03-09T03:21:43.390Z,0
2017-03-09T03:22:23.897Z,0
2017-03-09T03:23:04.666Z,0
2017-03-09T03:23:45.167Z,0
2017-03-09T03:25:57.945Z,0
2017-03-09T03:26:38.435Z,0
2017-03-09T03:27:18.953Z,0
2017-03-09T03:27:59.786Z,0
2017-03-09T03:28:40.281Z,0
2017-03-09T03:29:20.780Z,0
2017-03-09T03:30:01.288Z,0
2017-03-09T03:30:41.754Z,0
2017-03-09T03:31:22.252Z,0
2017-03-09T03:32:02.740Z,0
2017-03-09T03:32:43.243Z,0
2017-03-09T03:33:23.733Z,0
2017-03-09T03:34:04.213Z,0
2017-03-09T03:34:44.704Z,0
2017-03-09T03:35:25.220Z,0
2017-03-09T03:36:05.706Z,0
2017-03-09T03:36:46.189Z,0
2017-03-09T03:37:26.685Z,0
2017-03-09T03:38:07.171Z,0
2017-03-09T03:38:47.665Z,0
2017-03-09T03:39:28.163Z,0
2017-03-09T03:40:08.645Z,0
2017-03-09T03:40:49.135Z,0
2017-03-09T03:41:29.625Z,0
2017-03-09T03:42:10.118Z,0
2017-03-09T03:42:50.621Z,0
2017-03-09T03:43:31.099Z,0
2017-03-09T03:44:11.579Z,0
2017-03-09T03:44:52.076Z,0
2017-03-09T03:45:32.575Z,0
2017-03-09T03:46:13.058Z,0
2017-03-09T03:46:53.559Z,0
2017-03-09T03:47:34.056Z,0
2017-03-09T03:48:14.550Z,0
2017-03-09T03:48:55.033Z,0
2017-03-09T03:49:35.534Z,0
2017-03-09T03:50:16.021Z,0
2017-03-09T03:50:56.507Z,0
2017-03-09T03:51:37.003Z,0
2017-03-09T03:52:17.506Z,0
2017-03-09T03:52:58.001Z,0
2017-03-09T03:53:38.683Z,0
2017-03-09T03:54:19.162Z,0
2017-03-09T03:54:59.655Z,0
2017-03-09T03:55:40.152Z,0
2017-03-09T03:56:20.637Z,0
2017-03-09T03:57:01.149Z,0
2017-03-09T03:57:41.652Z,0
2017-03-09T03:58:22.159Z,0
2017-03-09T03:59:02.634Z,0
2017-03-09T03:59:43.118Z,0
2017-03-09T04:00:23.615Z,0
2017-03-09T04:01:04.115Z,0
2017-03-09T04:01:44.601Z,0
2017-03-09T04:02:25.085Z,0
2017-03-09T04:03:05.561Z,0
2017-03-09T04:03:46.054Z,0
2017-03-09T04:04:26.557Z,0
2017-03-09T04:05:07.048Z,0
2017-03-09T04:05:47.522Z,0
2017-03-09T04:06:28.044Z,0
2017-03-09T04:07:08.530Z,0
2017-03-09T04:07:49.015Z,0
2017-03-09T04:08:29.498Z,0
2017-03-09T04:09:09.991Z,0
2017-03-09T04:09:50.488Z,0
2017-03-09T04:10:30.974Z,0
2017-03-09T04:11:11.468Z,0
2017-03-09T04:11:51.973Z,0
2017-03-09T04:12:32.460Z,0
2017-03-09T04:13:12.945Z,0
2017-03-09T04:13:53.429Z,0
2017-03-09T04:14:33.943Z,0
2017-03-09T04:15:14.433Z,0
2017-03-09T04:15:54.931Z,0
2017-03-09T04:16:35.420Z,0
2017-03-09T04:17:15.932Z,0
2017-03-09T04:17:56.418Z,0
2017-03-09T04:18:36.930Z,0
2017-03-09T04:19:17.739Z,0
2017-03-09T04:19:58.239Z,0
2017-03-09T04:20:38.730Z,0
2017-03-09T04:21:19.232Z,0
2017-03-09T04:21:59.723Z,0
2017-03-09T04:22:40.213Z,0
2017-03-09T04:23:20.715Z,0
2017-03-09T04:24:01.203Z,0
2017-03-09T04:24:41.687Z,0
2017-03-09T04:25:22.183Z,0
2017-03-09T04:26:02.678Z,0
2017-03-09T04:26:43.175Z,0
2017-03-09T04:27:23.653Z,0
2017-03-09T04:28:04.131Z,0
2017-03-09T04:28:44.625Z,0
2017-03-09T04:29:25.121Z,0
2017-03-09T04:30:05.608Z,0
2017-03-09T04:30:46.100Z,0
2017-03-09T04:31:26.581Z,0
2017-03-09T04:32:07.083Z,0
2017-03-09T04:32:47.574Z,0
2017-03-09T04:33:28.057Z,0
2017-03-09T04:34:08.549Z,0
2017-03-09T04:34:49.065Z,0
2017-03-09T04:35:29.562Z,0
2017-03-09T04:36:10.053Z,0
2017-03-09T04:36:50.533Z,0
2017-03-09T04:37:31.019Z,0
2017-03-09T04:38:11.520Z,0
2017-03-09T04:38:52.010Z,0
2017-03-09T04:39:32.511Z,0
2017-03-09T04:40:13.008Z,0
2017-03-09T04:40:53.495Z,0
2017-03-09T04:41:33.987Z,0
2017-03-09T04:42:14.465Z,0
2017-03-09T04:42:54.963Z,0
2017-03-09T04:43:35.455Z,0
2017-03-09T04:44:15.943Z,0
2017-03-09T04:44:56.429Z,0
2017-03-09T04:45:36.909Z,0
2017-03-09T04:46:17.405Z,0
2017-03-09T04:46:57.905Z,0
2017-03-09T04:47:38.391Z,0
2017-03-09T04:48:18.876Z,0
2017-03-09T04:48:59.356Z,0
2017-03-09T04:49:39.851Z,0
2017-03-09T04:50:20.348Z,0
2017-03-09T04:51:00.836Z,0
2017-03-09T04:51:41.318Z,0
2017-03-09T04:52:21.811Z,0
2017-03-09T04:53:02.309Z,0
2017-03-09T04:53:42.802Z,0
2017-03-09T04:54:23.295Z,0
2017-03-09T04:55:03.766Z,0
2017-03-09T04:55:44.247Z,0
2017-03-09T04:56:24.740Z,0
2017-03-09T04:57:05.264Z,0
2017-03-09T04:57:45.743Z,0
2017-03-09T04:58:26.237Z,0
2017-03-09T04:59:06.727Z,0
2017-03-09T04:59:47.211Z,0
2017-03-09T05:00:27.693Z,0
2017-03-09T05:01:08.183Z,0
2017-03-09T05:01:48.680Z,0
2017-03-09T05:02:29.333Z,0
2017-03-09T05:03:09.826Z,0
2017-03-09T05:03:50.335Z,0
2017-03-09T05:04:31.007Z,0
2017-03-09T05:05:11.513Z,0
2017-03-09T05:05:52.003Z,0
2017-03-09T05:06:32.499Z,0
2017-03-09T05:07:12.991Z,0
2017-03-09T05:07:53.475Z,0
2017-03-09T05:08:33.986Z,0
2017-03-09T05:09:14.459Z,0
2017-03-09T05:09:54.986Z,0
2017-03-09T05:10:35.472Z,0
2017-03-09T05:11:15.961Z,0
2017-03-09T05:11:56.447Z,0
2017-03-09T05:12:36.961Z,0
2017-03-09T05:13:17.463Z,0
2017-03-09T05:13:57.979Z,0
2017-03-09T05:14:38.481Z,0
2017-03-09T05:15:18.973Z,0
2017-03-09T05:15:59.453Z,0
2017-03-09T05:16:39.951Z,0
2017-03-09T05:17:20.442Z,0
2017-03-09T05:18:00.944Z,0
2017-03-09T05:18:41.429Z,0
2017-03-09T05:19:21.899Z,0
2017-03-09T05:20:02.386Z,0
2017-03-09T05:20:42.876Z,0
2017-03-09T05:21:23.357Z,0
2017-03-09T05:22:03.848Z,0
2017-03-09T05:22:44.352Z,0
2017-03-09T05:23:24.834Z,0
2017-03-09T05:24:05.323Z,0
2017-03-09T05:24:45.804Z,0
2017-03-09T05:25:26.289Z,0
2017-03-09T05:26:06.776Z,0
2017-03-09T05:26:47.265Z,0
2017-03-09T05:27:27.759Z,0
2017-03-09T05:28:08.251Z,0
2017-03-09T05:28:48.740Z,0
2017-03-09T05:29:29.245Z,0
2017-03-09T05:30:10.035Z,0
2017-03-09T05:30:50.528Z,4
2017-03-09T05:31:31.016Z,4
2017-03-09T05:32:11.518Z,4
2017-03-09T05:32:51.999Z,4
2017-03-09T05:33:32.488Z,4
2017-03-09T05:34:12.977Z,4
2017-03-09T05:34:53.466Z,4
2017-03-09T05:35:33.958Z,4
2017-03-09T05:36:14.452Z,4
2017-03-09T05:36:54.952Z,4
2017-03-09T05:37:35.450Z,8
2017-03-09T05:38:15.935Z,8
2017-03-09T05:38:56.418Z,4
2017-03-09T05:39:36.899Z,8
2017-03-09T05:40:17.410Z,12
2017-03-09T05:40:57.905Z,8
2017-03-09T05:41:38.404Z,12
2017-03-09T05:42:18.888Z,12
2017-03-09T05:42:59.373Z,12
2017-03-09T05:43:39.860Z,12
2017-03-09T05:44:20.399Z,12
2017-03-09T05:45:00.891Z,16
2017-03-09T05:45:41.375Z,16
2017-03-09T05:46:21.875Z,20
2017-03-09T05:47:02.376Z,16
2017-03-09T05:47:42.857Z,20
2017-03-09T05:48:23.347Z,24
2017-03-09T05:49:03.819Z,20
2017-03-09T05:49:44.302Z,24
2017-03-09T05:50:24.782Z,28
2017-03-09T05:51:05.269Z,32
2017-03-09T05:51:45.750Z,40
2017-03-09T05:52:26.251Z,40
2017-03-09T05:53:06.738Z,40
2017-03-09T05:53:47.219Z,40
2017-03-09T05:54:27.724Z,40
2017-03-09T05:55:08.223Z,36
2017-03-09T05:55:48.942Z,40
2017-03-09T05:56:29.438Z,40
2017-03-09T05:57:09.935Z,40
2017-03-09T05:57:50.439Z,48
2017-03-09T05:58:30.936Z,48
2017-03-09T05:59:11.425Z,52
2017-03-09T05:59:51.912Z,56
2017-03-09T06:00:32.399Z,60
2017-03-09T06:01:12.900Z,60
2017-03-09T06:01:53.389Z,56
2017-03-09T06:02:33.878Z,60
2017-03-09T06:03:14.385Z,56
2017-03-09T06:03:54.869Z,56
2017-03-09T06:04:35.378Z,56
2017-03-09T06:05:15.868Z,64
2017-03-09T06:05:56.357Z,64
2017-03-09T06:06:36.838Z,72
2017-03-09T06:07:17.328Z,76
2017-03-09T06:07:57.832Z,84
2017-03-09T06:08:38.325Z,84
2017-03-09T06:09:18.820Z,96
2017-03-09T06:09:59.314Z,104
2017-03-09T06:10:39.822Z,104
2017-03-09T06:11:20.329Z,104
2017-03-09T06:12:00.825Z,108
2017-03-09T06:12:41.310Z,116
2017-03-09T06:13:21.798Z,112
2017-03-09T06:14:02.289Z,116
2017-03-09T06:14:42.783Z,120
2017-03-09T06:15:23.270Z,124
2017-03-09T06:16:03.770Z,132
2017-03-09T06:16:44.266Z,136
2017-03-09T06:17:24.752Z,136
2017-03-09T06:18:05.271Z,140
2017-03-09T06:18:45.759Z,148
2017-03-09T06:19:26.242Z,152
2017-03-09T06:20:06.726Z,156
2017-03-09T06:20:47.238Z,156
2017-03-09T06:21:27.739Z,152
2017-03-09T06:22:08.223Z,148
2017-03-09T06:22:48.714Z,152
2017-03-09T06:23:29.196Z,160
2017-03-09T06:24:09.702Z,168
2017-03-09T06:24:50.215Z,176
2017-03-09T06:25:30.708Z,184
2017-03-09T06:26:11.215Z,188
2017-03-09T06:26:51.710Z,192
2017-03-09T06:27:32.196Z,200
2017-03-09T06:28:12.678Z,212
2017-03-09T06:28:53.180Z,228
2017-03-09T06:29:33.672Z,248
2017-03-09T06:30:14.159Z,260
2017-03-09T06:30:54.655Z,264
2017-03-09T06:31:35.145Z,260
2017-03-09T06:32:15.651Z,264
2017-03-09T06:32:56.151Z,276
2017-03-09T06:33:36.647Z,296
2017-03-09T06:34:17.152Z,308
2017-03-09T06:34:57.651Z,316
2017-03-09T06:35:38.149Z,324
2017-03-09T06:36:18.657Z,336
2017-03-09T06:36:59.149Z,336
2017-03-09T06:37:39.645Z,352
2017-03-09T06:38:20.144Z,332
2017-03-09T06:39:00.633Z,336
2017-03-09T06:39:41.144Z,348
2017-03-09T06:40:21.632Z,356
2017-03-09T06:41:02.303Z,364
2017-03-09T06:41:42.805Z,372
2017-03-09T06:42:23.297Z,368
2017-03-09T06:43:03.798Z,364
2017-03-09T06:43:44.284Z,368
2017-03-09T06:44:24.774Z,384
2017-03-09T06:45:05.281Z,392
2017-03-09T06:45:45.770Z,388
2017-03-09T06:46:26.262Z,404
2017-03-09T06:47:06.754Z,420
2017-03-09T06:47:47.244Z,408
2017-03-09T06:48:27.732Z,408
2017-03-09T06:49:08.235Z,420
2017-03-09T06:49:48.727Z,432
2017-03-09T06:50:29.217Z,456
2017-03-09T06:51:09.718Z,468
2017-03-09T06:51:50.274Z,492
2017-03-09T06:52:30.778Z,516
2017-03-09T06:53:11.271Z,472
2017-03-09T06:53:51.756Z,452
2017-03-09T06:54:32.239Z,472
2017-03-09T06:55:12.732Z,488
2017-03-09T06:55:53.233Z,528
2017-03-09T06:56:33.726Z,596
2017-03-09T06:57:14.230Z,576
2017-03-09T06:57:54.725Z,524
2017-03-09T06:58:35.237Z,496
2017-03-09T06:59:15.728Z,460
2017-03-09T06:59:56.229Z,416
2017-03-09T07:00:36.701Z,388
2017-03-09T07:01:17.176Z,384
2017-03-09T07:01:57.677Z,392
2017-03-09T07:02:38.164Z,392
2017-03-09T07:03:18.655Z,384
2017-03-09T07:03:59.156Z,396
2017-03-09T07:04:39.650Z,408
2017-03-09T07:05:20.140Z,376
2017-03-09T07:06:00.641Z,336
2017-03-09T07:06:41.559Z,340
2017-03-09T07:07:22.091Z,368
2017-03-09T07:08:02.552Z,432
2017-03-09T07:08:43.042Z,484
2017-03-09T07:09:23.534Z,480
2017-03-09T07:10:04.113Z,440
2017-03-09T07:10:44.609Z,408
2017-03-09T07:11:25.113Z,412
2017-03-09T07:12:05.626Z,452
2017-03-09T07:12:46.112Z,500
2017-03-09T07:13:26.598Z,520
2017-03-09T07:14:07.084Z,488
2017-03-09T07:14:47.629Z,416
2017-03-09T07:15:28.910Z,392
2017-03-09T07:16:09.353Z,404
2017-03-09T07:16:49.852Z,436
2017-03-09T07:17:30.342Z,480
2017-03-09T07:18:10.826Z,492
2017-03-09T07:18:51.312Z,504
2017-03-09T07:19:31.812Z,512
2017-03-09T07:20:12.306Z,560
2017-03-09T07:20:52.793Z,576
2017-03-09T07:21:33.305Z,620
2017-03-09T07:22:13.792Z,740
2017-03-09T07:22:54.307Z,776
2017-03-09T07:23:34.797Z,772
2017-03-09T07:24:15.301Z,704
2017-03-09T07:24:55.796Z,688
2017-03-09T07:25:36.296Z,636
2017-03-09T07:26:16.782Z,656
2017-03-09T07:26:57.248Z,764
2017-03-09T07:27:37.743Z,920
2017-03-09T07:28:18.226Z,996
2017-03-09T07:28:58.711Z,888
2017-03-09T07:29:39.197Z,860
2017-03-09T07:30:19.705Z,820
2017-03-09T07:31:00.187Z,784
2017-03-09T07:31:40.676Z,780
2017-03-09T07:32:21.190Z,948
2017-03-09T07:33:01.680Z,1056
2017-03-09T07:33:42.172Z,1120
2017-03-09T07:34:22.670Z,1044
2017-03-09T07:35:03.148Z,892
2017-03-09T07:35:43.639Z,808
2017-03-09T07:36:24.125Z,840
2017-03-09T07:37:04.611Z,944
2017-03-09T07:37:45.096Z,936
2017-03-09T07:38:25.595Z,848
2017-03-09T07:39:06.079Z,796
2017-03-09T07:39:46.577Z,812
2017-03-09T07:40:27.080Z,788
2017-03-09T07:41:07.565Z,744
2017-03-09T07:41:48.057Z,792
2017-03-09T07:42:28.551Z,896
2017-03-09T07:43:09.018Z,1036
2017-03-09T07:43:49.526Z,1140
2017-03-09T07:44:30.011Z,1208
2017-03-09T07:45:10.501Z,1256
2017-03-09T07:45:50.981Z,1148
2017-03-09T07:46:31.467Z,984
2017-03-09T07:47:11.953Z,952
2017-03-09T07:47:52.450Z,996
2017-03-09T07:48:32.946Z,976
2017-03-09T07:49:13.425Z,984
2017-03-09T07:49:53.927Z,1004
2017-03-09T07:50:34.418Z,992
2017-03-09T07:51:14.915Z,976
2017-03-09T07:51:55.382Z,952
2017-03-09T07:52:35.868Z,908
2017-03-09T07:53:16.354Z,752
2017-03-09T07:53:56.862Z,636
2017-03-09T07:54:37.351Z,640
2017-03-09T07:55:17.830Z,716
2017-03-09T07:55:58.319Z,728
2017-03-09T07:56:38.795Z,708
2017-03-09T07:57:19.305Z,816
2017-03-09T07:57:59.796Z,948
2017-03-09T07:58:40.275Z,892
2017-03-09T07:59:21.424Z,876
2017-03-09T08:00:01.243Z,916
2017-03-09T08:00:41.723Z,976
2017-03-09T08:01:22.207Z,1056
2017-03-09T08:02:02.693Z,1208
2017-03-09T08:02:43.166Z,1220
2017-03-09T08:03:23.684Z,1180
2017-03-09T08:04:04.166Z,1120
2017-03-09T08:04:44.657Z,1036
2017-03-09T08:05:25.176Z,988
2017-03-09T08:06:05.676Z,1044
2017-03-09T08:06:46.172Z,1116
2017-03-09T08:07:26.649Z,1240
2017-03-09T08:08:07.153Z,1460
2017-03-09T08:08:47.646Z,1572
2017-03-09T08:09:28.150Z,1572
2017-03-09T08:10:08.672Z,1404
2017-03-09T08:10:49.165Z,1280
2017-03-09T08:11:29.655Z,1196
2017-03-09T08:12:10.144Z,1268
2017-03-09T08:12:50.642Z,1328
2017-03-09T08:13:31.121Z,1360
2017-03-09T08:14:11.620Z,1392
2017-03-09T08:14:52.098Z,1428
2017-03-09T08:15:32.602Z,1396
2017-03-09T08:16:13.121Z,1316
2017-03-09T08:16:53.609Z,1360
2017-03-09T08:17:34.324Z,1368
2017-03-09T08:18:14.820Z,1208
2017-03-09T08:18:55.328Z,1128
2017-03-09T08:19:35.825Z,1128
2017-03-09T08:20:16.303Z,1072
2017-03-09T08:20:56.818Z,1052
2017-03-09T08:21:37.370Z,928
2017-03-09T08:22:17.901Z,856
2017-03-09T08:22:58.382Z,896
2017-03-09T08:23:38.875Z,952
2017-03-09T08:24:19.342Z,968
2017-03-09T08:24:59.834Z,936
2017-03-09T08:25:40.948Z,916
2017-03-09T08:26:21.441Z,964
2017-03-09T08:27:01.953Z,1008
2017-03-09T08:27:42.447Z,1004
2017-03-09T08:28:22.930Z,968
2017-03-09T08:29:03.417Z,904
2017-03-09T08:29:47.025Z,912
2017-03-09T08:30:25.962Z,964
2017-03-09T08:31:06.442Z,964
2017-03-09T08:31:46.953Z,916
2017-03-09T08:32:27.493Z,916
2017-03-09T08:33:08.066Z,948
2017-03-09T08:33:48.647Z,984
2017-03-09T08:34:29.119Z,960
2017-03-09T08:35:09.609Z,916
2017-03-09T08:35:50.072Z,896
2017-03-09T08:36:30.590Z,884
2017-03-09T08:37:11.155Z,884
2017-03-09T08:41:01.297Z,968
2017-03-09T08:41:41.783Z,948
2017-03-09T08:42:22.256Z,892
2017-03-09T08:43:02.729Z,884
2017-03-09T08:43:43.256Z,940
2017-03-09T08:44:23.747Z,988
2017-03-09T08:45:04.249Z,1028
2017-03-09T08:45:44.773Z,1048
2017-03-09T08:48:02.726Z,1056
2017-03-09T08:48:43.241Z,1108
2017-03-09T08:49:23.723Z,1176
2017-03-09T08:50:04.227Z,1268
2017-03-09T08:50:44.719Z,1428
2017-03-09T08:51:25.293Z,1596
2017-03-09T08:52:05.786Z,1724
2017-03-09T08:52:46.272Z,1788
2017-03-09T08:53:26.775Z,1828
2017-03-09T08:54:07.270Z,1816
2017-03-09T08:54:47.751Z,1772
2017-03-09T08:55:28.235Z,1824
2017-03-09T08:56:08.727Z,1920
2017-03-09T08:56:49.229Z,2124
2017-03-09T08:57:29.712Z,2260
2017-03-09T08:58:10.223Z,2176
2017-03-09T08:58:50.893Z,2068
2017-03-09T08:59:31.474Z,1956
2017-03-09T09:00:11.944Z,1924
2017-03-09T09:00:52.470Z,1944
2017-03-09T09:01:32.988Z,2052
2017-03-09T09:02:13.649Z,2164
2017-03-09T09:02:54.402Z,2248
2017-03-09T09:03:35.504Z,2336
2017-03-09T09:04:16.263Z,2068
2017-03-09T09:04:56.807Z,1872
2017-03-09T09:05:37.288Z,1888
2017-03-09T09:06:17.793Z,1832
2017-03-09T09:06:58.280Z,1720
2017-03-09T09:07:38.763Z,1616
2017-03-09T09:08:19.753Z,1524
2017-03-09T09:09:00.083Z,1504
2017-03-09T09:09:40.567Z,1444
2017-03-09T09:10:21.059Z,1424
2017-03-09T09:11:01.536Z,1608
2017-03-09T09:11:42.016Z,1816
2017-03-09T09:12:22.505Z,1836
2017-03-09T09:13:02.994Z,1868
2017-03-09T09:13:43.501Z,2032
2017-03-09T09:14:23.998Z,1864
2017-03-09T09:15:04.530Z,1804
2017-03-09T09:15:45.170Z,1916
2017-03-09T09:16:25.705Z,1960
2017-03-09T09:17:07.139Z,2096
2017-03-09T09:17:47.642Z,2144
2017-03-09T09:18:28.192Z,2172
2017-03-09T09:19:08.764Z,2196
2017-03-09T09:19:49.219Z,2284
2017-03-09T09:20:29.697Z,2264
2017-03-09T09:21:10.190Z,2236
2017-03-09T09:21:50.673Z,2180
2017-03-09T09:22:31.169Z,2084
2017-03-09T09:23:12.564Z,2288
2017-03-09T09:23:52.553Z,2704
2017-03-09T09:24:33.711Z,2612
2017-03-09T09:25:14.204Z,2552
2017-03-09T09:25:54.666Z,2816
2017-03-09T09:26:36.024Z,2916
2017-03-09T09:27:16.519Z,3028
2017-03-09T09:27:57.046Z,2668
2017-03-09T09:28:39.051Z,2252
2017-03-09T09:29:18.593Z,2024
2017-03-09T09:29:59.085Z,2092
2017-03-09T09:30:39.563Z,2052
2017-03-09T09:31:20.045Z,1936
2017-03-09T09:32:00.541Z,1804
2017-03-09T09:32:41.036Z,1688
2017-03-09T09:33:21.498Z,1808
2017-03-09T09:34:02.064Z,2084
2017-03-09T09:34:42.555Z,2148
2017-03-09T09:35:23.067Z,1976
2017-03-09T09:36:03.553Z,1800
2017-03-09T09:36:44.054Z,1828
2017-03-09T09:37:24.577Z,1940
2017-03-09T09:38:05.066Z,1740
2017-03-09T09:38:45.555Z,1644
2017-03-09T09:39:26.111Z,1756
2017-03-09T09:40:06.589Z,1788
2017-03-09T09:40:47.074Z,1720
2017-03-09T09:41:27.556Z,1692
2017-03-09T09:42:08.040Z,1832
2017-03-09T09:42:48.565Z,1844
2017-03-09T09:43:29.049Z,1800
2017-03-09T09:44:09.813Z,1796
2017-03-09T09:44:50.274Z,1816
2017-03-09T09:45:30.763Z,1908